TX70 weather

Public forecast

Using degrees Fahrenheit for public forecast. Weather courtesy of forecast.io.

Closest aviation weather report (METAR) to Eberly Ranch Airport

Closest report is Brenham Municipal Airport, 12.9 nm (23.9 km) NW. Retrieved 2020/08/13 07:15 UTC (8 minutes ago):

K11R 130715Z AUTO 19005KT 10SM SCT010 27/26 A2997 RMK AO2 T02710257

Closest aviation forecast (TAF) to Eberly Ranch Airport

Closest forecast is Easterwood Field, 33.1 nm (61.3 km) NNW. Retrieved 2020/08/13 06:22 UTC (1 hour ago):

TAF KCLL 130520Z 1306/1406 17007KT P6SM FEW050 FM130900 19004KT P6SM SCT015 FM131500 21009KT P6SM SCT020 FM132100 18007KT P6SM FEW250